Data for 05/21/2010

Time Sea-Level Adjusted Pressure Absolute Pressure Temperature Relative Humidity Dew Point   
(mb) (inHg) (mb) (inHg) (C) (F) (%) (C) (F)
00:05 1017 30.03 846 24.98 3.2 37.8 92 2 35.7
00:10 1017 30.03 846 24.98 3.2 37.8 92 2 35.6
00:15 1017 30.03 846 24.98 3.2 37.7 92 1.9 35.5
00:20 1017 30.03 846 24.98 3.1 37.6 91 1.8 35.3
00:25 1017 30.03 846 24.98 3.1 37.7 92 1.9 35.4
00:30 1017 30.03 846 24.98 3.2 37.7 92 1.9 35.5
00:35 1017 30.03 846 24.98 3.1 37.6 92 1.9 35.4
00:40 1017 30.03 846 24.98 3.1 37.6 92 1.9 35.5
00:45 1017 30.03 846 24.98 3.1 37.6 92 1.9 35.4
00:50 1017 30.03 846 24.98 3.2 37.7 92 1.9 35.5
00:55 1017 30.03 846 24.98 3.2 37.8 92 2 35.7
01:00 1017 30.03 846 24.98 3.2 37.8 92 2 35.7
01:05 1017 30.03 846 24.98 3.2 37.8 92 2 35.6
01:10 1017 30.03 846 24.98 3.2 37.7 92 2 35.6
01:15 1017 30.03 846 24.98 3.1 37.5 92 1.9 35.4
01:20 1017 30.03 846 24.98 3 37.4 92 1.8 35.3
01:25 1017 30.03 846 24.98 2.9 37.3 91 1.6 34.9
01:30 1017 30.03 846 24.98 2.9 37.2 89 1.3 34.3
01:35 1017 30.03 846 24.98 2.9 37.2 90 1.4 34.5
01:40 1017 30.03 846 24.98 2.8 37.1 90 1.3 34.3
01:45 1017 30.03 846 24.98 2.8 37 90 1.3 34.4
01:50 1017 30.03 846 24.98 2.7 36.9 90 1.2 34.1
01:55 1017 30.03 846 24.98 2.7 36.9 90 1.2 34.1
02:00 1017 30.03 846 24.98 2.6 36.7 89 1 33.9
02:05 1017 30.03 846 24.98 2.6 36.6 89 1 33.8
02:10 1017 30.03 846 24.98 2.6 36.6 89 0.9 33.6
02:15 1017 30.03 846 24.98 2.6 36.6 89 0.9 33.5
02:20 1017 30.03 846 24.98 2.5 36.5 90 1 33.7
02:25 1017 30.03 846 24.98 2.5 36.4 89 0.8 33.5
02:30 1017 30.03 846 24.98 2.5 36.5 89 0.8 33.5
02:35 1017 30.03 846 24.98 2.5 36.5 89 0.8 33.5
02:40 1017 30.03 846 24.98 2.4 36.4 89 0.8 33.5
02:45 1016 30 846 24.98 2.4 36.4 89 0.8 33.5
02:50 1017 30.03 846 24.98 2.3 36.1 90 0.9 33.6
02:55 1017 30.03 846 24.98 2.2 35.9 91 0.8 33.4
03:00 1017 30.03 846 24.98 2.4 36.3 89 0.7 33.3
03:05 1017 30.03 846 24.98 2.7 36.9 87 0.7 33.3
03:10 1016 30 846 24.98 2.7 36.9 88 1 33.8
03:15 1016 30 846 24.98 2.2 35.9 91 0.9 33.6
03:20 1016 30 846 24.98 2 35.6 91 0.7 33.2
03:25 1016 30 846 24.98 2.1 35.8 90 0.7 33.3
03:30 1016 30 846 24.98 2.1 35.8 91 0.8 33.5
03:35 1016 30 846 24.98 1.9 35.5 93 0.9 33.6
03:40 1016 30 846 24.98 1.9 35.4 93 0.8 33.5
03:45 1016 30 846 24.98 1.6 34.9 93 0.7 33.2
03:50 1016 30 845 24.95 1.3 34.3 94 0.5 32.9
03:55 1016 30 845 24.95 1.1 33.9 95 0.3 32.6
04:00 1016 30 845 24.95 1 33.8 95 0.2 32.4
04:05 1016 30 845 24.95 0.8 33.5 95 0.1 32.1
04:10 1016 30 845 24.95 0.7 33.3 94 -0.1 31.8
04:15 1016 30 845 24.95 0.9 33.6 92 -0.3 31.5
04:20 1016 30 845 24.95 1 33.8 91 -0.3 31.4
04:25 1016 30 845 24.95 0.9 33.6 91 -0.4 31.2
04:30 1016 30 845 24.95 0.8 33.5 91 -0.5 31
04:35 1016 30 845 24.95 0.7 33.3 91 -0.6 31
04:40 1016 30 845 24.95 0.8 33.4 91 -0.5 31.1
04:45 1016 30 845 24.95 0.8 33.4 91 -0.5 31
04:50 1016 30 845 24.95 0.8 33.4 90 -0.7 30.8
04:55 1016 30 845 24.95 0.7 33.2 91 -0.7 30.7
05:00 1016 30 845 24.95 0.4 32.7 92 -0.8 30.5
05:05 1016 30 845 24.95 0.4 32.7 91 -0.9 30.3
05:10 1016 30 845 24.95 0.4 32.8 91 -1 30.3
05:15 1016 30 845 24.95 0.5 32.9 89 -1.1 30.1
05:20 1016 30 845 24.95 0.6 33.1 88 -1.2 29.9
05:25 1016 30 845 24.95 0.7 33.3 88 -1.1 30
05:30 1016 30 845 24.95 0.6 33.2 89 -1 30.2
05:35 1016 30 845 24.95 0.7 33.2 90 -0.8 30.5
05:40 1015 29.97 845 24.95 0.5 32.9 91 -0.8 30.5
05:45 1015 29.97 845 24.95 0.4 32.6 92 -0.8 30.5
05:50 1015 29.97 845 24.95 0.3 32.5 92 -0.8 30.5
05:55 1015 29.97 845 24.95 0.2 32.4 93 -0.8 30.6
06:00 1015 29.97 845 24.95 0.2 32.3 93 -0.8 30.6
06:05 1015 29.97 845 24.95 0.1 32.2 93 -0.8 30.5
06:10 1015 29.97 845 24.95 0.1 32.3 93 -0.9 30.3
06:15 1015 29.97 845 24.95 0.2 32.3 92 -1 30.2
06:20 1015 29.97 845 24.95 0.4 32.7 91 -0.9 30.3
06:25 1015 29.97 845 24.95 0.4 32.7 91 -0.9 30.3
06:30 1015 29.97 845 24.95 0.4 32.7 91 -1 30.3
06:35 1015 29.97 844 24.92 0.5 32.8 90 -1 30.2
06:40 1015 29.97 844 24.92 0.5 32.9 91 -0.8 30.5
06:45 1015 29.97 844 24.92 0.5 32.8 92 -0.8 30.6
06:50 1015 29.97 844 24.92 0.4 32.7 91 -0.8 30.5
06:55 1015 29.97 844 24.92 0.5 32.9 90 -1 30.2
07:00 1015 29.97 844 24.92 0.5 32.9 89 -1.1 30
07:05 1015 29.97 844 24.92 0.4 32.8 89 -1.1 30
07:10 1015 29.97 844 24.92 0.5 32.9 88 -1.3 29.7
07:15 1015 29.97 844 24.92 0.7 33.3 86 -1.4 29.5
07:20 1015 29.97 844 24.92 1.2 34.1 84 -1.3 29.7
07:25 1015 29.97 844 24.92 1.6 34.9 81 -1.3 29.7
07:30 1015 29.97 844 24.92 1.8 35.3 79 -1.4 29.4
07:35 1015 29.97 844 24.92 2 35.6 80 -1.1 29.9
07:40 1015 29.97 844 24.92 2.2 35.9 81 -0.8 30.6
07:45 1015 29.97 844 24.92 2.2 36 82 -0.6 31
07:50 1015 29.97 844 24.92 2.4 36.3 81 -0.6 31
07:55 1015 29.97 844 24.92 2.7 36.9 82 0 32.1
08:00 1015 29.97 844 24.92 3.2 37.8 79 -0.1 31.8
08:05 1015 29.97 844 24.92 3.6 38.5 78 0.1 32.2
08:10 1015 29.97 844 24.92 3.9 39.1 74 -0.3 31.5
08:15 1015 29.97 844 24.92 4 39.2 74 -0.3 31.5
08:20 1015 29.97 844 24.92 4.2 39.5 75 0.2 32.4
08:25 1015 29.97 844 24.92 5 41.1 70 0.1 32.1
08:30 1015 29.97 844 24.92 5.6 42 69 0.4 32.8
08:35 1014 29.94 844 24.92 5.7 42.3 65 -0.2 31.6
08:40 1015 29.97 844 24.92 5.8 42.4 63 -0.7 30.8
08:45 1014 29.94 844 24.92 6 42.8 57 -1.9 28.6
08:50 1014 29.94 844 24.92 6.1 42.9 55 -2.3 27.8
08:55 1014 29.94 843 24.89 6.4 43.5 57 -1.6 29.2
09:00 1014 29.94 843 24.89 6.6 43.9 52 -2.6 27.3
09:05 1014 29.94 843 24.89 6.9 44.3 52 -2.4 27.7
09:10 1014 29.94 843 24.89 7 44.6 50 -2.8 26.9
09:15 1014 29.94 843 24.89 7.4 45.2 46 -3.6 25.6
09:20 1014 29.94 843 24.89 7.8 46.1 45 -3.3 26.1
09:25 1014 29.94 843 24.89 7.6 45.7 49 -2.4 27.6
09:30 1014 29.94 843 24.89 7.3 45.1 45 -4 24.8
09:35 1014 29.94 843 24.89 7.2 45 43 -4.4 24.1
09:40 1014 29.94 843 24.89 7.3 45.1 43 -4.4 24.2
09:45 1014 29.94 843 24.89 7.4 45.4 42 -4.7 23.5
09:50 1014 29.94 843 24.89 7.7 45.9 40 -5.1 22.9
09:55 1013 29.91 843 24.89 8.2 46.8 41 -4.1 24.5
10:00 1013 29.91 843 24.89 9.2 48.5 38 -4.5 23.9
10:05 1013 29.91 843 24.89 9.3 48.7 40 -3.7 25.4
10:10 1013 29.91 842 24.86 8.3 46.9 46 -2.6 27.4
10:15 1013 29.91 842 24.86 8.2 46.8 42 -4 24.7
10:20 1013 29.91 842 24.86 9.7 49.4 40 -3.3 26.1
10:25 1013 29.91 842 24.86 9.2 48.5 42 -3 26.5
10:30 1013 29.91 842 24.86 8.8 47.8 43 -3.1 26.5
10:35 1013 29.91 842 24.86 10 49.9 37 -3.9 25
10:40 1013 29.91 842 24.86 10.6 51 37 -3.4 25.9
10:45 1012 29.88 842 24.86 10.5 51 37 -3.4 26
10:50 1012 29.88 842 24.86 9.9 49.9 38 -3.7 25.3
10:55 1012 29.88 841 24.83 9.2 48.5 40 -3.8 25.1
11:00 1012 29.88 841 24.83 8.9 48 39 -4.3 24.2
11:05 1012 29.88 841 24.83 10.3 50.5 36 -4 24.8
11:10 1012 29.88 841 24.83 9.5 49.1 38 -4.1 24.6
11:15 1012 29.88 841 24.83 9.1 48.4 38 -4.5 23.9
11:20 1012 29.88 841 24.83 9.4 48.8 39 -3.9 25
11:25 1012 29.88 841 24.83 9.8 49.7 39 -3.5 25.7
11:30 1012 29.88 841 24.83 9.5 49.1 38 -4 24.8
11:35 1011 29.85 841 24.83 9.6 49.4 36 -4.7 23.6
11:40 1011 29.85 841 24.83 11 51.7 35 -4.1 24.7
11:45 1011 29.85 841 24.83 11.5 52.6 33 -4 24.7
11:50 1011 29.85 841 24.83 11.8 53.2 33 -4 24.8
11:55 1011 29.85 840 24.81 12.1 53.8 31 -4.3 24.2
12:00 1011 29.85 840 24.81 11.9 53.4 32 -4.1 24.5
12:05 1011 29.85 840 24.81 11.4 52.6 34 -3.9 24.9
12:10 1011 29.85 840 24.81 11.6 52.8 34 -3.9 25
12:15 1011 29.85 840 24.81 12.2 53.9 34 -3.2 26.3
12:20 1011 29.85 840 24.81 11.8 53.2 34 -3.7 25.4
12:25 1011 29.85 840 24.81 12 53.7 32 -4.2 24.5
12:30 1011 29.85 840 24.81 11.6 52.8 33 -4.3 24.3
12:35 1010 29.83 840 24.81 12.4 54.4 31 -4 24.8
12:40 1010 29.83 840 24.81 12.1 53.8 32 -4.1 24.6
12:45 1010 29.83 839 24.78 12.9 55.2 30 -4.2 24.4
12:50 1010 29.83 839 24.78 12.8 55 31 -4 24.8
12:55 1010 29.83 839 24.78 12.8 55 32 -3.6 25.6
13:00 1010 29.83 839 24.78 13 55.3 31 -3.8 25.2
13:05 1010 29.83 839 24.78 13.5 56.3 29 -4.2 24.5
13:10 1010 29.83 839 24.78 13.9 57 28 -4.2 24.4
13:15 1010 29.83 839 24.78 12.5 54.5 32 -3.8 25.2
13:20 1010 29.83 839 24.78 12.1 53.8 32 -4.2 24.4
13:25 1009 29.8 839 24.78 12.5 54.4 29 -4.8 23.3
13:30 1009 29.8 839 24.78 13.8 56.9 27 -4.6 23.7
13:35 1009 29.8 838 24.75 13.7 56.7 28 -4.3 24.2
13:40 1009 29.8 838 24.75 14.4 58 27 -4.4 24.1
13:45 1009 29.8 838 24.75 14.7 58.5 26 -4.5 24
13:50 1009 29.8 838 24.75 15.3 59.6 27 -3.5 25.6
13:55 1009 29.8 838 24.75 15.3 59.6 27 -3.7 25.4
14:00 1009 29.8 838 24.75 15.3 59.6 26 -4.1 24.7
14:05 1009 29.8 838 24.75 15.8 60.4 25 -4.1 24.5
14:10 1008 29.77 838 24.75 15.9 60.7 24 -4.3 24.2
14:15 1008 29.77 838 24.75 15.8 60.5 24 -4.8 23.4
14:20 1008 29.77 837 24.72 14.9 58.8 27 -4 24.8
14:25 1008 29.77 837 24.72 14.6 58.2 25 -5.2 22.6
14:30 1008 29.77 837 24.72 14.9 58.8 27 -3.7 25.4
14:35 1008 29.77 837 24.72 14.7 58.5 26 -4.6 23.7
14:40 1008 29.77 837 24.72 14.3 57.8 27 -4.4 24
14:45 1008 29.77 837 24.72 13.7 56.7 26 -5.6 21.9
14:50 1008 29.77 837 24.72 13.8 56.8 25 -5.8 21.6
14:55 1007 29.74 837 24.72 14.4 57.8 26 -5.1 22.9
15:00 1007 29.74 837 24.72 14.3 57.7 26 -4.9 23.1
15:05 1007 29.74 836 24.69 15.2 59.3 25 -4.4 24
15:10 1007 29.74 836 24.69 15.2 59.4 26 -4.1 24.6
15:15 1007 29.74 836 24.69 14.9 58.7 24 -5.4 22.3
15:20 1007 29.74 836 24.69 15.4 59.7 24 -5.1 22.9
15:25 1007 29.74 836 24.69 14.1 57.4 23 -6.5 20.2
15:30 1007 29.74 836 24.69 14.1 57.4 25 -5.6 22
15:35 1007 29.74 836 24.69 14.6 58.3 25 -5.3 22.4
15:40 1007 29.74 836 24.69 14.1 57.4 25 -5.7 21.8
15:45 1007 29.74 836 24.69 14.1 57.4 25 -5.5 22.2
15:50 1007 29.74 836 24.69 14.3 57.8 25 -5.5 22.1
15:55 1007 29.74 836 24.69 14.4 57.9 25 -5.4 22.3
16:00 1007 29.74 836 24.69 14.4 57.9 22 -6.8 19.8
16:05 1007 29.74 836 24.69 14.3 57.7 23 -6.4 20.5
16:10 1007 29.74 836 24.69 14.5 58.1 25 -5.5 22.2
16:15 1007 29.74 836 24.69 14.4 58 23 -6.2 20.9
16:20 1007 29.74 836 24.69 14.3 57.8 23 -6.5 20.3
16:25 1007 29.74 836 24.69 14.2 57.5 23 -6.3 20.6
16:30 1007 29.74 836 24.69 13.9 57 24 -6.4 20.5
16:35 1007 29.74 836 24.69 13.9 57.1 25 -5.7 21.8
16:40 1007 29.74 836 24.69 13.9 57 25 -5.6 21.9
16:45 1007 29.74 836 24.69 14.2 57.5 27 -4.5 23.9
16:50 1007 29.74 836 24.69 14.2 57.6 26 -4.8 23.3
16:55 1006 29.71 836 24.69 14 57.2 26 -5 23
17:00 1006 29.71 836 24.69 13.9 57 27 -4.8 23.3
17:05 1006 29.71 836 24.69 13.8 56.9 27 -4.9 23.3
17:10 1006 29.71 835 24.66 13.9 57 27 -4.8 23.3
17:15 1006 29.71 835 24.66 13.6 56.5 29 -4.2 24.4
17:20 1006 29.71 835 24.66 13.7 56.7 29 -3.8 25.1
17:25 1006 29.71 835 24.66 13.5 56.4 30 -3.8 25.2
17:30 1006 29.71 835 24.66 13.5 56.2 29 -4 24.9
17:35 1006 29.71 835 24.66 12.5 54.5 30 -4.3 24.2
17:40 1006 29.71 835 24.66 12.6 54.6 30 -4.6 23.8
17:45 1006 29.71 835 24.66 13 55.3 29 -4.4 24.1
17:50 1006 29.71 835 24.66 12.8 55 30 -4.2 24.4
17:55 1006 29.71 835 24.66 12.6 54.6 30 -4.4 24.1
18:00 1006 29.71 836 24.69 13.1 55.7 29 -4.4 24
18:05 1007 29.74 836 24.69 12.3 54.2 37 -1.8 28.7
18:10 1006 29.71 836 24.69 11.6 52.8 38 -2.3 27.9
18:15 1006 29.71 835 24.66 11.6 52.8 38 -2.3 27.8
18:20 1006 29.71 835 24.66 11.6 53 36 -3 26.6
18:25 1006 29.71 835 24.66 11.8 53.2 36 -2.6 27.3
18:30 1006 29.71 835 24.66 12 53.6 36 -2.6 27.2
18:35 1006 29.71 835 24.66 12 53.6 35 -3.1 26.5
18:40 1006 29.71 835 24.66 12 53.6 34 -3.2 26.2
18:45 1006 29.71 835 24.66 12 53.6 34 -3.4 25.9
18:50 1006 29.71 835 24.66 11.9 53.5 34 -3.3 26.1
18:55 1006 29.71 835 24.66 11.9 53.4 35 -3.1 26.4
19:00 1005 29.68 835 24.66 11.9 53.4 36 -2.7 27.1
19:05 1005 29.68 835 24.66 11.7 53 36 -2.9 26.8
19:10 1005 29.68 834 24.63 11.8 53.2 35 -3.2 26.2
19:15 1005 29.68 834 24.63 12.1 53.7 35 -3 26.6
19:20 1005 29.68 834 24.63 12.2 54 34 -3.2 26.3
19:25 1005 29.68 834 24.63 12.2 53.9 33 -3.5 25.7
19:30 1005 29.68 834 24.63 12.3 54.2 33 -3.2 26.2
19:35 1005 29.68 834 24.63 12.2 54 35 -2.8 27
19:40 1005 29.68 834 24.63 12.3 54.1 36 -2.1 28.1
19:45 1005 29.68 834 24.63 12.2 53.9 35 -2.8 27
19:50 1005 29.68 834 24.63 12.1 53.8 36 -2.5 27.6
19:55 1005 29.68 834 24.63 12.2 53.9 38 -1.7 28.9
20:00 1005 29.68 834 24.63 12 53.5 38 -2 28.4
20:05 1005 29.68 834 24.63 11.8 53.2 39 -1.8 28.7
20:10 1005 29.68 834 24.63 11.8 53.3 39 -1.7 28.9
20:15 1005 29.68 834 24.63 11.7 53.1 40 -1.4 29.5
20:20 1005 29.68 834 24.63 11.5 52.8 40 -1.6 29.2
20:25 1005 29.68 834 24.63 11.4 52.4 42 -0.9 30.4
20:30 1005 29.68 834 24.63 11.2 52.1 41 -1.5 29.3
20:35 1005 29.68 834 24.63 11.1 51.9 42 -1.3 29.7
20:40 1005 29.68 834 24.63 10.9 51.7 42 -1.4 29.5
20:45 1005 29.68 834 24.63 10.8 51.4 44 -0.8 30.5
20:50 1005 29.68 834 24.63 10.6 51.2 43 -1.2 29.8
20:55 1005 29.68 834 24.63 10.4 50.8 44 -1.3 29.7
21:00 1004 29.65 834 24.63 10.3 50.5 46 -0.8 30.5
21:05 1004 29.65 834 24.63 10.2 50.4 45 -1.2 29.8
21:10 1004 29.65 834 24.63 10.2 50.4 45 -1.2 29.8
21:15 1004 29.65 834 24.63 10.1 50.2 46 -1 30.2
21:20 1004 29.65 833 24.6 10 50.1 45 -1.3 29.6
21:25 1004 29.65 833 24.6 10 49.9 46 -1.1 30
21:30 1004 29.65 833 24.6 9.9 49.8 46 -1.3 29.7
21:35 1004 29.65 833 24.6 9.8 49.6 47 -0.9 30.4
21:40 1004 29.65 833 24.6 9.6 49.2 48 -1 30.2
21:45 1004 29.65 834 24.63 9.4 49 49 -0.8 30.5
21:50 1004 29.65 834 24.63 9.4 48.9 49 -0.7 30.7
21:55 1004 29.65 834 24.63 9.5 49 50 -0.5 31.2
22:00 1004 29.65 834 24.63 9.5 49.1 50 -0.3 31.5
22:05 1004 29.65 834 24.63 9.4 48.9 51 -0.2 31.6
22:10 1004 29.65 834 24.63 9.3 48.7 51 -0.4 31.3
22:15 1005 29.68 834 24.63 9.4 48.8 51 -0.3 31.5
22:20 1005 29.68 834 24.63 9.3 48.7 53 0.2 32.4
22:25 1005 29.68 834 24.63 9 48.2 54 0.3 32.5
22:30 1005 29.68 834 24.63 8.9 48 56 0.5 32.9
22:35 1004 29.65 834 24.63 8.9 48.1 54 0.1 32.2
22:40 1004 29.65 833 24.6 9 48.3 53 0 32.1
22:45 1004 29.65 833 24.6 9 48.1 54 0.2 32.4
22:50 1004 29.65 833 24.6 8.9 48 55 0.2 32.4
22:55 1004 29.65 833 24.6 8.7 47.7 57 0.8 33.4
23:00 1004 29.65 833 24.6 8.6 47.5 55 0.2 32.4
23:05 1004 29.65 833 24.6 8.5 47.3 58 0.8 33.5
23:10 1004 29.65 834 24.63 8.1 46.7 62 1.3 34.3
23:15 1005 29.68 834 24.63 7.9 46.3 61 0.8 33.5
23:20 1005 29.68 834 24.63 7.9 46.3 60 0.7 33.3
23:25 1005 29.68 834 24.63 7.8 46 63 1.3 34.3
23:30 1005 29.68 834 24.63 7.7 45.9 65 1.5 34.7
23:35 1005 29.68 834 24.63 7.7 45.8 67 2 35.5
23:40 1005 29.68 834 24.63 7.6 45.6 65 1.4 34.4
23:45 1005 29.68 834 24.63 7.7 45.8 66 1.8 35.2
23:50 1005 29.68 834 24.63 7.6 45.6 71 2.7 36.9
23:55 1005 29.68 834 24.63 7 44.5 73 2.5 36.6
24:00 1005 29.68 834 24.63 6.8 44.3 73 2.3 36.1